Aérodrome :
LOGIN :

S'inscrire | Disclaimer

   EN    FR    IT 

 










Légende :    VFR   VFR Marginal   IFR   IFR Intensif   IFR Très Intensif
Visi : 
Plafond : 
>= 8 km
>= 3000ft
5 à 8 km
1000 à 3000 ft
1500m à 5 km
500 à 1000 ft
800 à 1500m
200 à 500 ft
< 800m
< 200 ft
Symboles :   Orages  Brouillard  Fortes neiges  Fortes précipitations  Vent > 20 kt
SIGMETs :   Divers  Orages  Givrage  Turbulence  Onde Orograph.  Cendres Volcan.







- Altitude de l'aérodrome : 75 ft
- Code IATA : YEO


EGDY - RNAS Yeovilton

DERNIER METAR :
  • 211650Z AUTO 28014KT 9999 FEW037/// BKN050/// 15/07 Q1015

METARs EXPIRÉS :
  • 211550Z AUTO 26015KT 9999 SCT045/// 15/08 Q1015

TAF TAF EGDY
Valide du 21 à 12h jusqu'au 21 à 21h UTC


211034Z 2112/2121 27015G35KT 9999 FEW020CB SCT050
PROB30
TEMPO 2112/2118 6000 SHRA FEW012 SCT020CB
BECMG 2118/2120 27010KT FEW035
Pas de NOTAMs connus pour ce terrain.
3 SIGMETs publiés pour la FIR London (EGTT) :
 
Turbulence forte
EGTT SIGMET 09 VALID 211900/212300 EGRR
EGTT LONDON FIR SEV TURB FCST WI N5220 W00530 - N5234 W00530 - N5153 W00255 - N4955 W00341 - N5102 W00755 - N5220 W00530 FL200/370 MOV NE 20KT NC=
Turbulence forte
EGTT SIGMET 08 VALID 211600/211900 EGRR
EGTT LONDON FIR SEV TURB FCST WI N4926 W00456 - N4856 W00731 - N4850 W00800 - N5100 W00800 - N5128 W00708 - N4953 W00238 - N4926 W00456 FL200/370 MOV ENE 20KT NC=
Turbulence forte
EGTT SIGMET 07 VALID 211500/211900 EGRR
EGTT LONDON FIR SEV TURB FCST WI N5419 W00347 - N5310 E00002 - N5155 W00013 - N5222 W00344 - N5419 W00347 SFC/FL060 MOV ESE 35KT WKN=



MET'MAP, la Météo Aéronautique d'un coup d'oeil ! - Copyright ORBIFLY Décembre 2007 - Disclaimer

ORBIFLY MET'MAP TEAM :

Programmation & Développement : Alexandra Zaïnal
Conception & Développement : Baudouin d'Aumeries
Co-Programmation & Développement : Marc-Olivier Méhu
Soutien technique & logistique : Manuel Goepfert

Contact : metmap@orbifly.com




SOURCES & CREDITS :

   NOAA